sensor_id;sensor_type;location;lat;lon;timestamp;pressure;altitude;pressure_sealevel;temperature;humidity
68399;BME280;56258;52.196;13.868;2022-09-02T00:01:28;101828.72;;;23.33;51.86
68399;BME280;56258;52.196;13.868;2022-09-02T00:04:00;101824.53;;;23.30;52.00
68399;BME280;56258;52.196;13.868;2022-09-02T00:06:28;101819.13;;;23.22;52.19
68399;BME280;56258;52.196;13.868;2022-09-02T00:08:57;101820.44;;;23.26;52.16
68399;BME280;56258;52.196;13.868;2022-09-02T00:11:27;101819.47;;;23.27;51.90
68399;BME280;56258;52.196;13.868;2022-09-02T00:13:55;101819.47;;;23.27;52.13
68399;BME280;56258;52.196;13.868;2022-09-02T00:16:23;101821.66;;;23.23;51.96
68399;BME280;56258;52.196;13.868;2022-09-02T00:18:51;101826.44;;;23.21;52.08
68399;BME280;56258;52.196;13.868;2022-09-02T00:21:19;101816.78;;;23.19;51.89
68399;BME280;56258;52.196;13.868;2022-09-02T00:23:46;101815.94;;;23.18;51.85
68399;BME280;56258;52.196;13.868;2022-09-02T00:26:13;101816.41;;;23.22;51.95
68399;BME280;56258;52.196;13.868;2022-09-02T00:28:40;101817.44;;;23.21;51.86
68399;BME280;56258;52.196;13.868;2022-09-02T00:31:22;101808.66;;;23.19;51.78
68399;BME280;56258;52.196;13.868;2022-09-02T00:33:50;101814.78;;;23.13;51.92
68399;BME280;56258;52.196;13.868;2022-09-02T00:36:17;101812.25;;;23.11;51.82
68399;BME280;56258;52.196;13.868;2022-09-02T00:38:44;101813.09;;;23.12;51.83
68399;BME280;56258;52.196;13.868;2022-09-02T00:41:12;101815.97;;;23.10;51.98
68399;BME280;56258;52.196;13.868;2022-09-02T00:46:09;101803.41;;;23.17;52.13
68399;BME280;56258;52.196;13.868;2022-09-02T00:48:38;101808.84;;;23.17;51.96
68399;BME280;56258;52.196;13.868;2022-09-02T00:51:08;101804.72;;;23.21;51.81
68399;BME280;56258;52.196;13.868;2022-09-02T00:53:38;101808.31;;;23.14;51.72
68399;BME280;56258;52.196;13.868;2022-09-02T00:56:09;101808.03;;;23.09;52.18
68399;BME280;56258;52.196;13.868;2022-09-02T00:58:38;101810.56;;;23.10;52.05
68399;BME280;56258;52.196;13.868;2022-09-02T01:01:09;101809.91;;;23.08;52.46
68399;BME280;56258;52.196;13.868;2022-09-02T01:03:38;101817.38;;;23.06;52.37
68399;BME280;56258;52.196;13.868;2022-09-02T01:06:07;101810.06;;;23.07;52.14
68399;BME280;56258;52.196;13.868;2022-09-02T01:08:36;101804.59;;;23.15;51.70
68399;BME280;56258;52.196;13.868;2022-09-02T01:11:05;101803.91;;;23.13;52.11
68399;BME280;56258;52.196;13.868;2022-09-02T01:13:39;101805.78;;;23.12;52.33
68399;BME280;56258;52.196;13.868;2022-09-02T01:16:10;101798.69;;;23.11;51.51
68399;BME280;56258;52.196;13.868;2022-09-02T01:18:48;101808.91;;;23.01;51.80
68399;BME280;56258;52.196;13.868;2022-09-02T01:21:15;101805.16;;;23.02;52.06
68399;BME280;56258;52.196;13.868;2022-09-02T01:23:43;101805.06;;;22.95;52.63
68399;BME280;56258;52.196;13.868;2022-09-02T01:26:10;101806.41;;;22.91;53.05
68399;BME280;56258;52.196;13.868;2022-09-02T01:28:37;101799.44;;;22.97;53.01
68399;BME280;56258;52.196;13.868;2022-09-02T01:31:04;101800.28;;;22.97;52.92
68399;BME280;56258;52.196;13.868;2022-09-02T01:33:31;101798.78;;;22.95;52.65
68399;BME280;56258;52.196;13.868;2022-09-02T01:35:58;101810.47;;;22.95;52.35
68399;BME280;56258;52.196;13.868;2022-09-02T01:38:26;101804.22;;;22.95;53.19
68399;BME280;56258;52.196;13.868;2022-09-02T01:40:53;101800.47;;;22.96;52.78
68399;BME280;56258;52.196;13.868;2022-09-02T01:43:22;101790.28;;;22.98;52.51
68399;BME280;56258;52.196;13.868;2022-09-02T01:45:52;101803.16;;;23.04;52.30
68399;BME280;56258;52.196;13.868;2022-09-02T01:48:19;101802.13;;;23.05;52.47
68399;BME280;56258;52.196;13.868;2022-09-02T01:50:51;101799.94;;;23.00;52.84
68399;BME280;56258;52.196;13.868;2022-09-02T01:53:18;101804.22;;;22.95;52.45
68399;BME280;56258;52.196;13.868;2022-09-02T01:55:44;101799.81;;;22.94;53.08
68399;BME280;56258;52.196;13.868;2022-09-02T01:58:11;101803.19;;;22.96;52.83
68399;BME280;56258;52.196;13.868;2022-09-02T02:00:38;101800.47;;;22.96;53.09
68399;BME280;56258;52.196;13.868;2022-09-02T02:03:05;101796.72;;;22.97;52.70
68399;BME280;56258;52.196;13.868;2022-09-02T02:05:32;101798.13;;;22.93;52.54
68399;BME280;56258;52.196;13.868;2022-09-02T02:07:59;101801.50;;;22.95;53.18
68399;BME280;56258;52.196;13.868;2022-09-02T02:10:26;101805.53;;;22.99;53.03
68399;BME280;56258;52.196;13.868;2022-09-02T02:12:53;101798.13;;;22.93;52.86
68399;BME280;56258;52.196;13.868;2022-09-02T02:15:20;101796.59;;;22.90;52.97
68399;BME280;56258;52.196;13.868;2022-09-02T02:17:47;101797.44;;;22.91;53.00
68399;BME280;56258;52.196;13.868;2022-09-02T02:20:16;101790.28;;;22.98;52.99
68399;BME280;56258;52.196;13.868;2022-09-02T02:22:43;101790.00;;;22.93;52.53
68399;BME280;56258;52.196;13.868;2022-09-02T02:25:12;101792.00;;;22.91;53.18
68399;BME280;56258;52.196;13.868;2022-09-02T02:27:41;101787.59;;;22.90;53.07
68399;BME280;56258;52.196;13.868;2022-09-02T02:30:10;101787.97;;;22.87;52.89
68399;BME280;56258;52.196;13.868;2022-09-02T02:32:37;101787.97;;;22.87;52.59
68399;BME280;56258;52.196;13.868;2022-09-02T02:35:05;101788.44;;;22.90;53.16
68399;BME280;56258;52.196;13.868;2022-09-02T02:37:32;101784.91;;;22.90;52.99
68399;BME280;56258;52.196;13.868;2022-09-02T02:39:58;101790.69;;;22.87;52.94
68399;BME280;56258;52.196;13.868;2022-09-02T02:42:25;101789.50;;;22.81;53.05
68399;BME280;56258;52.196;13.868;2022-09-02T02:44:52;101782.72;;;22.85;52.53
68399;BME280;56258;52.196;13.868;2022-09-02T02:47:19;101788.34;;;22.84;52.96
68399;BME280;56258;52.196;13.868;2022-09-02T02:49:46;101787.50;;;22.83;52.68
68399;BME280;56258;52.196;13.868;2022-09-02T02:52:13;101777.50;;;22.76;53.43
68399;BME280;56258;52.196;13.868;2022-09-02T02:54:40;101785.63;;;22.76;53.48
68399;BME280;56258;52.196;13.868;2022-09-02T02:57:07;101783.28;;;22.73;53.01
68399;BME280;56258;52.196;13.868;2022-09-02T02:59:35;101788.88;;;22.71;53.06
68399;BME280;56258;52.196;13.868;2022-09-02T03:02:03;101783.28;;;22.73;53.03
68399;BME280;56258;52.196;13.868;2022-09-02T03:04:31;101774.97;;;22.74;53.27
68399;BME280;56258;52.196;13.868;2022-09-02T03:06:57;101781.59;;;22.71;53.63
68399;BME280;56258;52.196;13.868;2022-09-02T03:09:24;101773.78;;;22.68;53.05
68399;BME280;56258;52.196;13.868;2022-09-02T03:11:51;101770.91;;;22.70;53.18
68399;BME280;56258;52.196;13.868;2022-09-02T03:14:17;101776.84;;;22.65;53.78
68399;BME280;56258;52.196;13.868;2022-09-02T03:16:44;101772.28;;;22.66;53.67
68399;BME280;56258;52.196;13.868;2022-09-02T03:19:11;101767.88;;;22.65;53.46
68399;BME280;56258;52.196;13.868;2022-09-02T03:21:40;101778.53;;;22.66;53.20
68399;BME280;56258;52.196;13.868;2022-09-02T03:24:08;101769.75;;;22.64;53.24
68399;BME280;56258;52.196;13.868;2022-09-02T03:26:35;101771.63;;;22.64;53.45
68399;BME280;56258;52.196;13.868;2022-09-02T03:29:02;101767.22;;;22.63;53.57
68399;BME280;56258;52.196;13.868;2022-09-02T03:31:29;101773.66;;;22.62;53.71
68399;BME280;56258;52.196;13.868;2022-09-02T03:33:56;101773.47;;;22.63;53.65
68399;BME280;56258;52.196;13.868;2022-09-02T03:36:30;101768.41;;;22.60;53.06
68399;BME280;56258;52.196;13.868;2022-09-02T03:38:57;101770.28;;;22.60;53.68
68399;BME280;56258;52.196;13.868;2022-09-02T03:41:24;101768.41;;;22.60;53.71
68399;BME280;56258;52.196;13.868;2022-09-02T03:43:51;101771.47;;;22.57;53.25
68399;BME280;56258;52.196;13.868;2022-09-02T03:46:18;101767.25;;;22.55;53.46
68399;BME280;56258;52.196;13.868;2022-09-02T03:48:45;101767.06;;;22.56;53.87
68399;BME280;56258;52.196;13.868;2022-09-02T03:51:12;101770.78;;;22.55;53.28
68399;BME280;56258;52.196;13.868;2022-09-02T03:53:39;101759.63;;;22.58;53.48
68399;BME280;56258;52.196;13.868;2022-09-02T03:56:08;101763.31;;;22.57;53.27
68399;BME280;56258;52.196;13.868;2022-09-02T03:58:39;101768.59;;;22.59;53.81
68399;BME280;56258;52.196;13.868;2022-09-02T04:01:07;101766.41;;;22.54;53.37
68399;BME280;56258;52.196;13.868;2022-09-02T04:03:38;101763.38;;;22.49;53.40
68399;BME280;56258;52.196;13.868;2022-09-02T04:06:07;101765.72;;;22.52;53.24
68399;BME280;56258;52.196;13.868;2022-09-02T04:08:35;101764.22;;;22.58;53.55
68399;BME280;56258;52.196;13.868;2022-09-02T04:11:07;101765.19;;;22.57;53.33
68399;BME280;56258;52.196;13.868;2022-09-02T04:13:34;101771.34;;;22.51;53.48
68399;BME280;56258;52.196;13.868;2022-09-02T04:16:10;101775.56;;;22.45;53.19
68399;BME280;56258;52.196;13.868;2022-09-02T04:18:37;101771.88;;;22.46;53.32
68399;BME280;56258;52.196;13.868;2022-09-02T04:21:05;101774.59;;;22.46;53.52
68399;BME280;56258;52.196;13.868;2022-09-02T04:23:32;101777.63;;;22.43;53.53
68399;BME280;56258;52.196;13.868;2022-09-02T04:26:06;101772.38;;;22.41;53.24
68399;BME280;56258;52.196;13.868;2022-09-02T04:28:33;101774.91;;;22.43;52.92
68399;BME280;56258;52.196;13.868;2022-09-02T04:31:05;101773.22;;;22.42;52.68
68399;BME280;56258;52.196;13.868;2022-09-02T04:33:32;101780.88;;;22.38;53.29
68399;BME280;56258;52.196;13.868;2022-09-02T04:35:58;101771.22;;;22.36;53.14
68399;BME280;56258;52.196;13.868;2022-09-02T04:38:25;101776.66;;;22.36;52.99
68399;BME280;56258;52.196;13.868;2022-09-02T04:40:52;101778.16;;;22.38;53.61
68399;BME280;56258;52.196;13.868;2022-09-02T04:43:19;101770.22;;;22.37;52.92
68399;BME280;56258;52.196;13.868;2022-09-02T04:45:45;101776.28;;;22.39;53.38
68399;BME280;56258;52.196;13.868;2022-09-02T04:48:12;101774.44;;;22.31;53.17
68399;BME280;56258;52.196;13.868;2022-09-02T04:50:40;101783.09;;;22.27;52.92
68399;BME280;56258;52.196;13.868;2022-09-02T04:53:07;101782.75;;;22.30;53.32
68399;BME280;56258;52.196;13.868;2022-09-02T04:55:34;101774.25;;;22.33;53.14
68399;BME280;56258;52.196;13.868;2022-09-02T04:58:00;101772.75;;;22.30;53.10
68399;BME280;56258;52.196;13.868;2022-09-02T05:00:27;101778.84;;;22.32;53.23
68399;BME280;56258;52.196;13.868;2022-09-02T05:02:54;101780.22;;;22.28;53.01
68399;BME280;56258;52.196;13.868;2022-09-02T05:05:21;101783.09;;;22.35;53.06
68399;BME280;56258;52.196;13.868;2022-09-02T05:07:48;101775.81;;;22.35;52.63
68399;BME280;56258;52.196;13.868;2022-09-02T05:10:15;101790.38;;;22.34;53.33
68399;BME280;56258;52.196;13.868;2022-09-02T05:12:42;101783.22;;;22.33;53.10
68399;BME280;56258;52.196;13.868;2022-09-02T05:15:10;101782.25;;;22.34;52.38
68399;BME280;56258;52.196;13.868;2022-09-02T05:17:37;101792.53;;;22.39;53.06
68399;BME280;56258;52.196;13.868;2022-09-02T05:20:05;101796.78;;;22.33;52.66
68399;BME280;56258;52.196;13.868;2022-09-02T05:22:34;101804.06;;;22.33;52.29
68399;BME280;56258;52.196;13.868;2022-09-02T05:25:02;101798.81;;;22.31;52.83
68399;BME280;56258;52.196;13.868;2022-09-02T05:27:29;101797.47;;;22.35;52.62
68399;BME280;56258;52.196;13.868;2022-09-02T05:29:56;101796.97;;;22.32;52.78
68399;BME280;56258;52.196;13.868;2022-09-02T05:32:25;101801.03;;;22.28;52.54
68399;BME280;56258;52.196;13.868;2022-09-02T05:34:54;101800.38;;;22.26;52.32
68399;BME280;56258;52.196;13.868;2022-09-02T05:37:22;101801.34;;;22.33;52.76
68399;BME280;56258;52.196;13.868;2022-09-02T05:39:50;101802.72;;;22.29;52.16
68399;BME280;56258;52.196;13.868;2022-09-02T05:42:18;101802.25;;;22.25;52.85
68399;BME280;56258;52.196;13.868;2022-09-02T05:44:46;101804.59;;;22.28;53.01
68399;BME280;56258;52.196;13.868;2022-09-02T05:47:13;101803.09;;;22.26;52.51
68399;BME280;56258;52.196;13.868;2022-09-02T05:49:39;101799.34;;;22.27;52.79
68399;BME280;56258;52.196;13.868;2022-09-02T05:52:06;101795.63;;;22.28;52.89
68399;BME280;56258;52.196;13.868;2022-09-02T05:54:36;101793.44;;;22.23;52.34
68399;BME280;56258;52.196;13.868;2022-09-02T05:57:09;101796.31;;;22.22;52.60
68399;BME280;56258;52.196;13.868;2022-09-02T05:59:38;101798.34;;;22.20;52.74
68399;BME280;56258;52.196;13.868;2022-09-02T06:02:09;101803.09;;;22.26;52.75
68399;BME280;56258;52.196;13.868;2022-09-02T06:04:42;101798.34;;;22.20;52.57
68399;BME280;56258;52.196;13.868;2022-09-02T06:07:09;101789.88;;;22.23;52.23
68399;BME280;56258;52.196;13.868;2022-09-02T06:09:39;101798.16;;;22.21;53.15
68399;BME280;56258;52.196;13.868;2022-09-02T06:12:06;101797.69;;;22.18;52.54
68399;BME280;56258;52.196;13.868;2022-09-02T06:14:33;101794.44;;;22.22;53.11
68399;BME280;56258;52.196;13.868;2022-09-02T06:17:00;101795.97;;;22.25;52.99
68399;BME280;56258;52.196;13.868;2022-09-02T06:19:29;101796.16;;;22.23;52.63
68399;BME280;56258;52.196;13.868;2022-09-02T06:22:00;101791.22;;;22.27;52.81
68399;BME280;56258;52.196;13.868;2022-09-02T06:24:28;101799.66;;;22.40;53.05
68399;BME280;56258;52.196;13.868;2022-09-02T06:26:57;101786.78;;;22.42;52.89
68399;BME280;56258;52.196;13.868;2022-09-02T06:29:25;101792.56;;;22.86;51.97
68399;BME280;56258;52.196;13.868;2022-09-02T06:31:53;101788.16;;;23.16;51.89
68399;BME280;56258;52.196;13.868;2022-09-02T06:34:21;101795.94;;;23.19;52.43
68399;BME280;56258;52.196;13.868;2022-09-02T06:36:49;101796.22;;;23.47;50.90
68399;BME280;56258;52.196;13.868;2022-09-02T06:39:18;101790.72;;;23.64;50.60
68399;BME280;56258;52.196;13.868;2022-09-02T06:41:46;101797.28;;;23.69;50.36
68399;BME280;56258;52.196;13.868;2022-09-02T06:44:15;101784.25;;;23.65;50.28
68399;BME280;56258;52.196;13.868;2022-09-02T06:46:47;101795.97;;;23.65;50.00
68399;BME280;56258;52.196;13.868;2022-09-02T06:49:19;101785.75;;;23.67;49.90
68399;BME280;56258;52.196;13.868;2022-09-02T06:51:48;101784.72;;;23.68;49.58
68399;BME280;56258;52.196;13.868;2022-09-02T06:54:18;101790.16;;;23.68;49.64
68399;BME280;56258;52.196;13.868;2022-09-02T06:56:46;101789.59;;;23.73;49.55
68399;BME280;56258;52.196;13.868;2022-09-02T06:59:16;101799.63;;;23.72;49.42
68399;BME280;56258;52.196;13.868;2022-09-02T07:01:44;101797.94;;;23.71;49.42
68399;BME280;56258;52.196;13.868;2022-09-02T07:04:11;101794.38;;;23.71;49.42
68399;BME280;56258;52.196;13.868;2022-09-02T07:06:56;101803.34;;;23.71;49.30
68399;BME280;56258;52.196;13.868;2022-09-02T07:09:25;101803.59;;;23.62;49.48
68399;BME280;56258;52.196;13.868;2022-09-02T07:12:00;101801.84;;;23.69;49.31
68399;BME280;56258;52.196;13.868;2022-09-02T07:14:31;101790.16;;;23.68;49.22
68399;BME280;56258;52.196;13.868;2022-09-02T07:16:57;101794.97;;;23.81;48.70
68399;BME280;56258;52.196;13.868;2022-09-02T07:19:25;101797.88;;;23.79;48.84
68399;BME280;56258;52.196;13.868;2022-09-02T07:21:52;101805.03;;;23.72;48.76
68399;BME280;56258;52.196;13.868;2022-09-02T07:24:20;101803.06;;;23.66;49.06
68399;BME280;56258;52.196;13.868;2022-09-02T07:26:47;101803.91;;;23.67;49.39
68399;BME280;56258;52.196;13.868;2022-09-02T07:29:17;101804.47;;;23.62;49.36
68399;BME280;56258;52.196;13.868;2022-09-02T07:31:46;101795.69;;;23.52;49.20
68399;BME280;56258;52.196;13.868;2022-09-02T07:34:14;101801.84;;;23.46;49.54
68399;BME280;56258;52.196;13.868;2022-09-02T07:36:41;101808.34;;;23.37;49.64
68399;BME280;56258;52.196;13.868;2022-09-02T07:39:09;101812.81;;;23.29;49.79
68399;BME280;56258;52.196;13.868;2022-09-02T07:41:37;101806.97;;;23.18;50.36
68399;BME280;56258;52.196;13.868;2022-09-02T07:44:04;101806.13;;;23.17;50.14
68399;BME280;56258;52.196;13.868;2022-09-02T07:46:32;101807.63;;;23.20;50.60
68399;BME280;56258;52.196;13.868;2022-09-02T07:48:59;101795.44;;;23.16;50.44
68399;BME280;56258;52.196;13.868;2022-09-02T07:51:27;101799.47;;;23.20;50.36
68399;BME280;56258;52.196;13.868;2022-09-02T07:53:56;101808.47;;;23.20;49.99
68399;BME280;56258;52.196;13.868;2022-09-02T07:56:23;101802.00;;;23.21;50.01
68399;BME280;56258;52.196;13.868;2022-09-02T07:58:50;101806.44;;;23.14;50.69
68399;BME280;56258;52.196;13.868;2022-09-02T08:01:17;101802.06;;;23.13;50.37
68399;BME280;56258;52.196;13.868;2022-09-02T08:03:48;101806.19;;;23.01;50.99
68399;BME280;56258;52.196;13.868;2022-09-02T08:06:15;101807.09;;;22.93;51.16
68399;BME280;56258;52.196;13.868;2022-09-02T08:08:47;101806.84;;;23.03;50.04
68399;BME280;56258;52.196;13.868;2022-09-02T08:11:14;101809.22;;;23.06;50.86
68399;BME280;56258;52.196;13.868;2022-09-02T08:13:40;101807.84;;;23.10;50.35
68399;BME280;56258;52.196;13.868;2022-09-02T08:16:07;101814.66;;;23.06;50.75
68399;BME280;56258;52.196;13.868;2022-09-02T08:18:34;101802.16;;;22.97;50.70
68399;BME280;56258;52.196;13.868;2022-09-02T08:21:01;101801.16;;;22.90;50.60
68399;BME280;56258;52.196;13.868;2022-09-02T08:23:28;101809.63;;;22.95;50.85
68399;BME280;56258;52.196;13.868;2022-09-02T08:26:03;101808.72;;;23.03;50.92
68399;BME280;56258;52.196;13.868;2022-09-02T08:28:31;101797.19;;;23.09;50.19
68399;BME280;56258;52.196;13.868;2022-09-02T08:30:57;101804.97;;;23.04;50.76
68399;BME280;56258;52.196;13.868;2022-09-02T08:33:25;101802.06;;;23.13;50.27
68399;BME280;56258;52.196;13.868;2022-09-02T08:35:51;101797.00;;;23.10;50.69
68399;BME280;56258;52.196;13.868;2022-09-02T08:38:18;101805.31;;;23.09;49.97
68399;BME280;56258;52.196;13.868;2022-09-02T08:40:48;101798.63;;;22.88;51.08
68399;BME280;56258;52.196;13.868;2022-09-02T08:43:26;101810.69;;;22.86;51.32
68399;BME280;56258;52.196;13.868;2022-09-02T08:45:57;101806.75;;;22.96;50.35
68399;BME280;56258;52.196;13.868;2022-09-02T08:48:59;101798.03;;;23.09;50.28
68399;BME280;56258;52.196;13.868;2022-09-02T08:51:36;101798.28;;;23.22;50.05
68399;BME280;56258;52.196;13.868;2022-09-02T08:54:11;101801.66;;;23.47;49.57
68399;BME280;56258;52.196;13.868;2022-09-02T08:56:41;101804.47;;;24.00;47.91
68399;BME280;56258;52.196;13.868;2022-09-02T08:59:09;101798.34;;;24.35;47.22
68399;BME280;56258;52.196;13.868;2022-09-02T09:04:15;101793.38;;;24.54;46.58
68399;BME280;56258;52.196;13.868;2022-09-02T09:12:36;101792.34;;;24.40;46.89
68399;BME280;56258;52.196;13.868;2022-09-02T09:18:01;101785.34;;;24.46;46.60
68399;BME280;56258;52.196;13.868;2022-09-02T09:20:37;101785.34;;;24.46;46.80
68399;BME280;56258;52.196;13.868;2022-09-02T09:23:28;101778.47;;;24.50;46.59
68399;BME280;56258;52.196;13.868;2022-09-02T09:26:21;101785.38;;;24.82;45.68
68399;BME280;56258;52.196;13.868;2022-09-02T09:28:52;101781.13;;;24.94;45.41
68399;BME280;56258;52.196;13.868;2022-09-02T09:31:23;101776.66;;;25.22;44.66
68399;BME280;56258;52.196;13.868;2022-09-02T09:34:05;101777.91;;;25.41;44.10
68399;BME280;56258;52.196;13.868;2022-09-02T09:36:48;101763.38;;;25.77;43.28
68399;BME280;56258;52.196;13.868;2022-09-02T09:39:27;101769.19;;;25.95;43.35
68399;BME280;56258;52.196;13.868;2022-09-02T09:41:57;101769.41;;;26.28;42.33
68399;BME280;56258;52.196;13.868;2022-09-02T09:44:40;101766.06;;;26.33;42.06
68399;BME280;56258;52.196;13.868;2022-09-02T09:47:14;101762.06;;;26.70;41.21
68399;BME280;56258;52.196;13.868;2022-09-02T09:49:44;101754.78;;;26.97;40.54
68399;BME280;56258;52.196;13.868;2022-09-02T09:52:21;101754.50;;;27.33;40.38
68399;BME280;56258;52.196;13.868;2022-09-02T09:55:06;101757.22;;;27.53;39.65
68399;BME280;56258;52.196;13.868;2022-09-02T09:57:33;101747.16;;;27.86;38.74
68399;BME280;56258;52.196;13.868;2022-09-02T10:00:10;101745.47;;;27.52;39.39
68399;BME280;56258;52.196;13.868;2022-09-02T10:02:47;101740.69;;;26.80;41.30
68399;BME280;56258;52.196;13.868;2022-09-02T10:05:38;101739.63;;;27.82;38.81
68399;BME280;56258;52.196;13.868;2022-09-02T10:08:26;101734.56;;;27.32;40.25
68399;BME280;56258;52.196;13.868;2022-09-02T10:11:05;101734.88;;;28.48;37.66
68399;BME280;56258;52.196;13.868;2022-09-02T10:13:44;101735.00;;;29.37;36.11
68399;BME280;56258;52.196;13.868;2022-09-02T10:25:33;101725.47;;;28.76;36.59
68399;BME280;56258;52.196;13.868;2022-09-02T10:33:37;101717.16;;;26.66;41.04
68399;BME280;56258;52.196;13.868;2022-09-02T10:38:50;101720.28;;;27.83;38.86
68399;BME280;56258;52.196;13.868;2022-09-02T10:41:39;101718.63;;;26.68;41.25
68399;BME280;56258;52.196;13.868;2022-09-02T10:44:29;101720.56;;;29.23;36.24
68399;BME280;56258;52.196;13.868;2022-09-02T10:47:30;101720.66;;;27.14;40.32
68399;BME280;56258;52.196;13.868;2022-09-02T10:50:20;101717.63;;;26.76;41.11
68399;BME280;56258;52.196;13.868;2022-09-02T10:55:42;101708.09;;;30.20;34.52
68399;BME280;56258;52.196;13.868;2022-09-02T11:01:07;101717.22;;;33.03;29.36
68399;BME280;56258;52.196;13.868;2022-09-02T11:06:29;101707.13;;;32.28;30.57
68399;BME280;56258;52.196;13.868;2022-09-02T11:09:43;101704.50;;;30.19;33.83
68399;BME280;56258;52.196;13.868;2022-09-02T11:12:17;101700.44;;;29.11;36.29
68399;BME280;56258;52.196;13.868;2022-09-02T11:14:56;101691.88;;;28.56;37.43
68399;BME280;56258;52.196;13.868;2022-09-02T11:23:16;101697.59;;;27.37;39.61
68399;BME280;56258;52.196;13.868;2022-09-02T11:25:56;101695.25;;;27.20;40.30
68399;BME280;56258;52.196;13.868;2022-09-02T11:28:40;101696.56;;;28.87;37.03
68399;BME280;56258;52.196;13.868;2022-09-02T11:33:59;101692.28;;;28.59;37.24
68399;BME280;56258;52.196;13.868;2022-09-02T11:36:37;101688.53;;;28.54;37.21
68399;BME280;56258;52.196;13.868;2022-09-02T11:42:07;101671.94;;;34.27;27.58
68399;BME280;56258;52.196;13.868;2022-09-02T11:44:45;101678.75;;;35.54;25.43
68399;BME280;56258;52.196;13.868;2022-09-02T11:47:29;101673.28;;;36.11;24.79
68399;BME280;56258;52.196;13.868;2022-09-02T11:55:15;101672.84;;;32.59;29.93
68399;BME280;56258;52.196;13.868;2022-09-02T11:57:53;101679.38;;;33.32;29.06
68399;BME280;56258;52.196;13.868;2022-09-02T12:00:34;101670.09;;;34.10;27.73
68399;BME280;56258;52.196;13.868;2022-09-02T12:05:49;101666.09;;;30.19;34.00
68399;BME280;56258;52.196;13.868;2022-09-02T12:11:03;101656.13;;;30.73;33.01
68399;BME280;56258;52.196;13.868;2022-09-02T12:21:25;101650.53;;;30.50;33.81
68399;BME280;56258;52.196;13.868;2022-09-02T12:31:49;101635.63;;;27.37;39.78
68399;BME280;56258;52.196;13.868;2022-09-02T12:52:48;101615.78;;;29.09;36.88
68399;BME280;56258;52.196;13.868;2022-09-02T12:55:27;101609.56;;;28.95;37.03
68399;BME280;56258;52.196;13.868;2022-09-02T12:58:19;101605.88;;;29.08;36.95
68399;BME280;56258;52.196;13.868;2022-09-02T13:03:42;101607.38;;;29.04;36.92
68399;BME280;56258;52.196;13.868;2022-09-02T13:24:46;101593.75;;;29.22;36.86
68399;BME280;56258;52.196;13.868;2022-09-02T13:33:28;101588.03;;;29.49;36.55
68399;BME280;56258;52.196;13.868;2022-09-02T13:35:57;101578.09;;;29.54;36.48
68399;BME280;56258;52.196;13.868;2022-09-02T13:38:27;101579.06;;;29.60;36.74
68399;BME280;56258;52.196;13.868;2022-09-02T13:40:54;101575.00;;;29.62;36.42
68399;BME280;56258;52.196;13.868;2022-09-02T13:43:23;101573.66;;;29.72;36.30
68399;BME280;56258;52.196;13.868;2022-09-02T13:45:57;101570.16;;;29.83;36.09
68399;BME280;56258;52.196;13.868;2022-09-02T13:48:26;101571.81;;;29.84;36.04
68399;BME280;56258;52.196;13.868;2022-09-02T13:50:55;101567.63;;;30.00;35.87
68399;BME280;56258;52.196;13.868;2022-09-02T13:53:30;101568.22;;;30.02;36.05
68399;BME280;56258;52.196;13.868;2022-09-02T13:56:22;101563.53;;;29.11;37.20
68399;BME280;56258;52.196;13.868;2022-09-02T13:58:52;101574.94;;;28.76;38.07
68399;BME280;56258;52.196;13.868;2022-09-02T14:03:58;101572.50;;;28.23;39.14
68399;BME280;56258;52.196;13.868;2022-09-02T14:06:32;101565.78;;;28.32;39.10
68399;BME280;56258;52.196;13.868;2022-09-02T14:09:05;101556.78;;;28.88;38.10
68399;BME280;56258;52.196;13.868;2022-09-02T14:11:37;101556.66;;;29.01;37.65
68399;BME280;56258;52.196;13.868;2022-09-02T14:14:06;101556.03;;;28.74;38.18
68399;BME280;56258;52.196;13.868;2022-09-02T14:16:35;101551.41;;;29.00;37.76
68399;BME280;56258;52.196;13.868;2022-09-02T14:24:13;101550.16;;;29.21;37.35
68399;BME280;56258;52.196;13.868;2022-09-02T14:26:43;101548.19;;;29.28;37.03
68399;BME280;56258;52.196;13.868;2022-09-02T14:29:13;101547.28;;;29.34;37.12
68399;BME280;56258;52.196;13.868;2022-09-02T14:31:41;101544.00;;;29.25;36.99
68399;BME280;56258;52.196;13.868;2022-09-02T14:34:36;101537.97;;;29.17;37.52
68399;BME280;56258;52.196;13.868;2022-09-02T14:37:24;101534.19;;;28.93;37.80
68399;BME280;56258;52.196;13.868;2022-09-02T14:42:28;101530.56;;;28.74;38.44
68399;BME280;56258;52.196;13.868;2022-09-02T14:44:55;101527.63;;;28.69;38.39
68399;BME280;56258;52.196;13.868;2022-09-02T14:47:24;101535.94;;;28.56;38.68
68399;BME280;56258;52.196;13.868;2022-09-02T14:49:54;101539.34;;;28.13;39.52
68399;BME280;56258;52.196;13.868;2022-09-02T14:52:29;101539.53;;;27.73;39.94
68399;BME280;56258;52.196;13.868;2022-09-02T14:54:58;101535.78;;;27.54;40.47
68399;BME280;56258;52.196;13.868;2022-09-02T14:57:34;101533.75;;;27.30;41.33
68399;BME280;56258;52.196;13.868;2022-09-02T15:00:08;101533.53;;;27.31;41.42
68399;BME280;56258;52.196;13.868;2022-09-02T15:02:42;101528.72;;;27.20;41.25
68399;BME280;56258;52.196;13.868;2022-09-02T15:05:12;101528.53;;;27.15;41.63
68399;BME280;56258;52.196;13.868;2022-09-02T15:07:40;101531.47;;;27.07;41.30
68399;BME280;56258;52.196;13.868;2022-09-02T15:10:08;101530.19;;;26.96;41.75
68399;BME280;56258;52.196;13.868;2022-09-02T15:12:48;101522.25;;;26.88;41.78